sensor_id;sensor_type;location;lat;lon;timestamp;P1;durP1;ratioP1;P2;durP2;ratioP2
17650;SDS011;26663;59.302;18.082;2022-08-25T00:02:31;47.97;;;5.53;;
17650;SDS011;26663;59.302;18.082;2022-08-25T00:06:03;40.30;;;5.20;;
17650;SDS011;26663;59.302;18.082;2022-08-25T00:09:16;34.22;;;5.22;;
17650;SDS011;26663;59.302;18.082;2022-08-25T00:12:38;37.92;;;4.45;;
17650;SDS011;26663;59.302;18.082;2022-08-25T00:15:46;33.60;;;5.70;;
17650;SDS011;26663;59.302;18.082;2022-08-25T00:18:53;31.60;;;4.40;;
17650;SDS011;26663;59.302;18.082;2022-08-25T00:22:01;51.35;;;4.50;;
17650;SDS011;26663;59.302;18.082;2022-08-25T00:25:11;21.83;;;3.85;;
17650;SDS011;26663;59.302;18.082;2022-08-25T00:28:16;25.08;;;4.45;;
17650;SDS011;26663;59.302;18.082;2022-08-25T00:31:22;42.97;;;5.85;;
17650;SDS011;26663;59.302;18.082;2022-08-25T00:34:41;72.90;;;6.70;;
17650;SDS011;26663;59.302;18.082;2022-08-25T00:37:46;57.60;;;5.68;;
17650;SDS011;26663;59.302;18.082;2022-08-25T00:40:53;75.43;;;6.90;;
17650;SDS011;26663;59.302;18.082;2022-08-25T00:44:13;57.88;;;6.72;;
17650;SDS011;26663;59.302;18.082;2022-08-25T00:47:20;45.60;;;5.28;;
17650;SDS011;26663;59.302;18.082;2022-08-25T00:50:26;39.85;;;5.30;;
17650;SDS011;26663;59.302;18.082;2022-08-25T00:53:34;36.33;;;5.20;;
17650;SDS011;26663;59.302;18.082;2022-08-25T00:56:41;41.55;;;5.45;;
17650;SDS011;26663;59.302;18.082;2022-08-25T00:59:47;54.58;;;4.78;;
17650;SDS011;26663;59.302;18.082;2022-08-25T01:02:53;37.33;;;4.95;;
17650;SDS011;26663;59.302;18.082;2022-08-25T01:06:00;28.90;;;4.93;;
17650;SDS011;26663;59.302;18.082;2022-08-25T01:09:08;24.60;;;4.28;;
17650;SDS011;26663;59.302;18.082;2022-08-25T01:12:17;34.40;;;4.60;;
17650;SDS011;26663;59.302;18.082;2022-08-25T01:15:23;30.33;;;3.95;;
17650;SDS011;26663;59.302;18.082;2022-08-25T01:18:31;38.78;;;4.90;;
17650;SDS011;26663;59.302;18.082;2022-08-25T01:21:51;30.67;;;4.88;;
17650;SDS011;26663;59.302;18.082;2022-08-25T01:24:58;33.53;;;5.07;;
17650;SDS011;26663;59.302;18.082;2022-08-25T01:28:17;34.67;;;4.38;;
17650;SDS011;26663;59.302;18.082;2022-08-25T01:31:34;38.63;;;4.95;;
17650;SDS011;26663;59.302;18.082;2022-08-25T01:34:46;32.92;;;4.28;;
17650;SDS011;26663;59.302;18.082;2022-08-25T01:37:56;23.25;;;3.80;;
17650;SDS011;26663;59.302;18.082;2022-08-25T01:41:02;29.33;;;4.10;;
17650;SDS011;26663;59.302;18.082;2022-08-25T01:44:08;29.35;;;3.88;;
17650;SDS011;26663;59.302;18.082;2022-08-25T01:47:20;20.35;;;3.30;;
17650;SDS011;26663;59.302;18.082;2022-08-25T01:50:26;17.00;;;3.85;;
17650;SDS011;26663;59.302;18.082;2022-08-25T01:53:34;19.02;;;3.63;;
17650;SDS011;26663;59.302;18.082;2022-08-25T01:56:39;25.77;;;4.10;;
17650;SDS011;26663;59.302;18.082;2022-08-25T01:59:45;24.50;;;3.88;;
17650;SDS011;26663;59.302;18.082;2022-08-25T02:02:51;40.70;;;4.68;;
17650;SDS011;26663;59.302;18.082;2022-08-25T02:05:58;23.02;;;3.70;;
17650;SDS011;26663;59.302;18.082;2022-08-25T02:09:08;25.33;;;3.70;;
17650;SDS011;26663;59.302;18.082;2022-08-25T02:12:17;24.38;;;3.90;;
17650;SDS011;26663;59.302;18.082;2022-08-25T02:15:22;29.85;;;3.67;;
17650;SDS011;26663;59.302;18.082;2022-08-25T02:18:29;20.15;;;4.22;;
17650;SDS011;26663;59.302;18.082;2022-08-25T02:21:34;19.30;;;4.10;;
17650;SDS011;26663;59.302;18.082;2022-08-25T02:24:42;19.58;;;3.70;;
17650;SDS011;26663;59.302;18.082;2022-08-25T02:27:47;25.83;;;3.97;;
17650;SDS011;26663;59.302;18.082;2022-08-25T02:30:53;29.73;;;4.13;;
17650;SDS011;26663;59.302;18.082;2022-08-25T02:34:04;20.08;;;3.50;;
17650;SDS011;26663;59.302;18.082;2022-08-25T02:37:11;19.15;;;3.08;;
17650;SDS011;26663;59.302;18.082;2022-08-25T02:40:18;25.50;;;3.22;;
17650;SDS011;26663;59.302;18.082;2022-08-25T02:43:25;25.70;;;3.95;;
17650;SDS011;26663;59.302;18.082;2022-08-25T02:46:31;21.40;;;3.65;;
17650;SDS011;26663;59.302;18.082;2022-08-25T02:49:37;31.15;;;4.43;;
17650;SDS011;26663;59.302;18.082;2022-08-25T02:52:43;24.75;;;3.35;;
17650;SDS011;26663;59.302;18.082;2022-08-25T02:55:52;19.90;;;3.75;;
17650;SDS011;26663;59.302;18.082;2022-08-25T02:58:58;21.38;;;3.75;;
17650;SDS011;26663;59.302;18.082;2022-08-25T03:02:04;22.00;;;3.33;;
17650;SDS011;26663;59.302;18.082;2022-08-25T03:05:12;30.95;;;3.38;;
17650;SDS011;26663;59.302;18.082;2022-08-25T03:08:19;19.83;;;2.90;;
17650;SDS011;26663;59.302;18.082;2022-08-25T03:11:27;12.45;;;2.90;;
17650;SDS011;26663;59.302;18.082;2022-08-25T03:14:33;18.30;;;2.40;;
17650;SDS011;26663;59.302;18.082;2022-08-25T03:17:39;8.25;;;2.70;;
17650;SDS011;26663;59.302;18.082;2022-08-25T03:20:48;8.07;;;2.78;;
17650;SDS011;26663;59.302;18.082;2022-08-25T03:23:54;9.27;;;2.60;;
17650;SDS011;26663;59.302;18.082;2022-08-25T03:27:02;20.48;;;2.80;;
17650;SDS011;26663;59.302;18.082;2022-08-25T03:30:11;6.43;;;2.88;;
17650;SDS011;26663;59.302;18.082;2022-08-25T03:33:17;5.72;;;2.47;;
17650;SDS011;26663;59.302;18.082;2022-08-25T03:36:23;19.88;;;2.90;;
17650;SDS011;26663;59.302;18.082;2022-08-25T03:39:29;11.23;;;3.65;;
17650;SDS011;26663;59.302;18.082;2022-08-25T03:42:36;20.25;;;2.70;;
17650;SDS011;26663;59.302;18.082;2022-08-25T03:45:48;14.35;;;2.50;;
17650;SDS011;26663;59.302;18.082;2022-08-25T03:48:53;14.98;;;2.85;;
17650;SDS011;26663;59.302;18.082;2022-08-25T03:52:01;10.23;;;2.67;;
17650;SDS011;26663;59.302;18.082;2022-08-25T03:55:10;7.10;;;2.65;;
17650;SDS011;26663;59.302;18.082;2022-08-25T03:58:19;22.00;;;2.60;;
17650;SDS011;26663;59.302;18.082;2022-08-25T04:01:24;10.32;;;2.60;;
17650;SDS011;26663;59.302;18.082;2022-08-25T04:04:31;20.90;;;2.80;;
17650;SDS011;26663;59.302;18.082;2022-08-25T04:07:37;11.00;;;2.60;;
17650;SDS011;26663;59.302;18.082;2022-08-25T04:10:43;11.65;;;2.30;;
17650;SDS011;26663;59.302;18.082;2022-08-25T04:13:50;8.25;;;2.28;;
17650;SDS011;26663;59.302;18.082;2022-08-25T04:16:56;12.07;;;2.60;;
17650;SDS011;26663;59.302;18.082;2022-08-25T04:20:02;7.53;;;2.80;;
17650;SDS011;26663;59.302;18.082;2022-08-25T04:23:12;13.60;;;2.55;;
17650;SDS011;26663;59.302;18.082;2022-08-25T04:26:18;7.85;;;2.97;;
17650;SDS011;26663;59.302;18.082;2022-08-25T04:29:31;7.88;;;2.38;;
17650;SDS011;26663;59.302;18.082;2022-08-25T04:32:37;4.22;;;2.25;;
17650;SDS011;26663;59.302;18.082;2022-08-25T04:35:46;5.72;;;2.22;;
17650;SDS011;26663;59.302;18.082;2022-08-25T04:38:52;6.43;;;2.50;;
17650;SDS011;26663;59.302;18.082;2022-08-25T04:41:58;2.45;;;2.25;;
17650;SDS011;26663;59.302;18.082;2022-08-25T04:45:06;7.03;;;2.10;;
17650;SDS011;26663;59.302;18.082;2022-08-25T04:48:14;7.32;;;2.40;;
17650;SDS011;26663;59.302;18.082;2022-08-25T04:51:20;4.82;;;2.38;;
17650;SDS011;26663;59.302;18.082;2022-08-25T04:54:28;7.65;;;2.30;;
17650;SDS011;26663;59.302;18.082;2022-08-25T04:57:39;7.95;;;2.85;;
17650;SDS011;26663;59.302;18.082;2022-08-25T05:00:46;3.83;;;2.28;;
17650;SDS011;26663;59.302;18.082;2022-08-25T05:03:52;2.63;;;2.15;;
17650;SDS011;26663;59.302;18.082;2022-08-25T05:07:02;4.38;;;2.25;;
17650;SDS011;26663;59.302;18.082;2022-08-25T05:10:08;2.78;;;2.28;;
17650;SDS011;26663;59.302;18.082;2022-08-25T05:13:16;4.72;;;2.38;;
17650;SDS011;26663;59.302;18.082;2022-08-25T05:16:24;5.20;;;2.08;;
17650;SDS011;26663;59.302;18.082;2022-08-25T05:19:30;2.00;;;1.90;;
17650;SDS011;26663;59.302;18.082;2022-08-25T05:22:35;2.20;;;2.00;;
17650;SDS011;26663;59.302;18.082;2022-08-25T05:25:42;1.98;;;1.80;;
17650;SDS011;26663;59.302;18.082;2022-08-25T05:28:48;2.20;;;1.73;;
17650;SDS011;26663;59.302;18.082;2022-08-25T05:31:56;1.70;;;1.60;;
17650;SDS011;26663;59.302;18.082;2022-08-25T05:35:02;2.67;;;1.65;;
17650;SDS011;26663;59.302;18.082;2022-08-25T05:38:10;2.10;;;2.00;;
17650;SDS011;26663;59.302;18.082;2022-08-25T05:41:19;5.93;;;1.85;;
17650;SDS011;26663;59.302;18.082;2022-08-25T05:44:26;3.60;;;2.10;;
17650;SDS011;26663;59.302;18.082;2022-08-25T05:47:33;2.05;;;1.90;;
17650;SDS011;26663;59.302;18.082;2022-08-25T05:50:39;1.58;;;1.58;;
17650;SDS011;26663;59.302;18.082;2022-08-25T05:53:46;4.95;;;1.55;;
17650;SDS011;26663;59.302;18.082;2022-08-25T05:56:54;2.25;;;1.58;;
17650;SDS011;26663;59.302;18.082;2022-08-25T06:00:02;2.22;;;1.45;;
17650;SDS011;26663;59.302;18.082;2022-08-25T06:03:17;2.50;;;1.40;;
17650;SDS011;26663;59.302;18.082;2022-08-25T06:06:22;5.13;;;1.60;;
17650;SDS011;26663;59.302;18.082;2022-08-25T06:09:28;1.75;;;1.40;;
17650;SDS011;26663;59.302;18.082;2022-08-25T06:12:34;2.08;;;1.50;;
17650;SDS011;26663;59.302;18.082;2022-08-25T06:15:40;1.60;;;1.50;;
17650;SDS011;26663;59.302;18.082;2022-08-25T06:18:49;3.50;;;1.55;;
17650;SDS011;26663;59.302;18.082;2022-08-25T06:21:55;1.30;;;1.30;;
17650;SDS011;26663;59.302;18.082;2022-08-25T06:25:01;1.40;;;1.30;;
17650;SDS011;26663;59.302;18.082;2022-08-25T06:28:10;1.90;;;1.80;;
17650;SDS011;26663;59.302;18.082;2022-08-25T06:31:16;2.25;;;1.77;;
17650;SDS011;26663;59.302;18.082;2022-08-25T06:34:24;3.78;;;2.10;;
17650;SDS011;26663;59.302;18.082;2022-08-25T06:37:29;1.70;;;1.60;;
17650;SDS011;26663;59.302;18.082;2022-08-25T06:40:36;1.63;;;1.63;;
17650;SDS011;26663;59.302;18.082;2022-08-25T06:43:42;1.80;;;1.70;;
17650;SDS011;26663;59.302;18.082;2022-08-25T06:47:23;1.27;;;1.27;;
17650;SDS011;26663;59.302;18.082;2022-08-25T06:50:45;1.65;;;1.30;;
17650;SDS011;26663;59.302;18.082;2022-08-25T06:53:50;1.95;;;1.42;;
17650;SDS011;26663;59.302;18.082;2022-08-25T06:56:56;1.98;;;1.90;;
17650;SDS011;26663;59.302;18.082;2022-08-25T07:00:02;1.70;;;1.70;;
17650;SDS011;26663;59.302;18.082;2022-08-25T07:03:14;2.10;;;2.00;;
17650;SDS011;26663;59.302;18.082;2022-08-25T07:06:21;1.60;;;1.60;;
17650;SDS011;26663;59.302;18.082;2022-08-25T07:09:27;1.77;;;1.60;;
17650;SDS011;26663;59.302;18.082;2022-08-25T07:12:33;6.07;;;1.60;;
17650;SDS011;26663;59.302;18.082;2022-08-25T07:15:40;1.42;;;1.25;;
17650;SDS011;26663;59.302;18.082;2022-08-25T07:18:47;1.80;;;1.40;;
17650;SDS011;26663;59.302;18.082;2022-08-25T07:22:23;1.77;;;1.20;;
17650;SDS011;26663;59.302;18.082;2022-08-25T07:25:49;1.17;;;1.17;;
17650;SDS011;26663;59.302;18.082;2022-08-25T07:28:55;1.10;;;1.08;;
17650;SDS011;26663;59.302;18.082;2022-08-25T07:32:02;1.45;;;1.30;;
17650;SDS011;26663;59.302;18.082;2022-08-25T07:35:09;8.45;;;5.93;;
17650;SDS011;26663;59.302;18.082;2022-08-25T07:38:23;1.38;;;1.38;;
17650;SDS011;26663;59.302;18.082;2022-08-25T07:41:29;1.00;;;1.00;;
17650;SDS011;26663;59.302;18.082;2022-08-25T07:44:35;1.10;;;1.10;;
17650;SDS011;26663;59.302;18.082;2022-08-25T07:47:43;2.38;;;1.40;;
17650;SDS011;26663;59.302;18.082;2022-08-25T07:50:48;2.88;;;1.10;;
17650;SDS011;26663;59.302;18.082;2022-08-25T07:53:55;1.92;;;1.48;;
17650;SDS011;26663;59.302;18.082;2022-08-25T07:57:04;6.50;;;1.20;;
17650;SDS011;26663;59.302;18.082;2022-08-25T08:00:13;1.17;;;0.90;;
17650;SDS011;26663;59.302;18.082;2022-08-25T08:03:24;1.10;;;1.10;;
17650;SDS011;26663;59.302;18.082;2022-08-25T08:06:49;1.13;;;1.00;;
17650;SDS011;26663;59.302;18.082;2022-08-25T08:09:56;1.20;;;1.20;;
17650;SDS011;26663;59.302;18.082;2022-08-25T08:13:21;0.90;;;0.90;;
17650;SDS011;26663;59.302;18.082;2022-08-25T08:16:29;1.00;;;1.00;;
17650;SDS011;26663;59.302;18.082;2022-08-25T08:19:36;1.20;;;1.20;;
17650;SDS011;26663;59.302;18.082;2022-08-25T08:22:47;2.50;;;2.10;;
17650;SDS011;26663;59.302;18.082;2022-08-25T08:25:54;1.65;;;1.65;;
17650;SDS011;26663;59.302;18.082;2022-08-25T08:29:00;1.90;;;1.90;;
17650;SDS011;26663;59.302;18.082;2022-08-25T08:32:08;1.20;;;1.20;;
17650;SDS011;26663;59.302;18.082;2022-08-25T08:35:15;1.00;;;1.00;;
17650;SDS011;26663;59.302;18.082;2022-08-25T08:38:21;1.75;;;1.00;;
17650;SDS011;26663;59.302;18.082;2022-08-25T08:45:35;0.80;;;0.80;;
17650;SDS011;26663;59.302;18.082;2022-08-25T08:48:51;1.05;;;1.05;;
17650;SDS011;26663;59.302;18.082;2022-08-25T08:52:05;1.30;;;0.90;;
17650;SDS011;26663;59.302;18.082;2022-08-25T08:55:14;1.75;;;0.68;;
17650;SDS011;26663;59.302;18.082;2022-08-25T08:58:33;0.88;;;0.65;;
17650;SDS011;26663;59.302;18.082;2022-08-25T09:01:45;0.70;;;0.70;;
17650;SDS011;26663;59.302;18.082;2022-08-25T09:04:56;0.70;;;0.70;;
17650;SDS011;26663;59.302;18.082;2022-08-25T09:08:07;0.60;;;0.60;;
17650;SDS011;26663;59.302;18.082;2022-08-25T09:11:19;0.70;;;0.70;;
17650;SDS011;26663;59.302;18.082;2022-08-25T09:14:37;1.85;;;0.90;;
17650;SDS011;26663;59.302;18.082;2022-08-25T09:18:03;5.68;;;1.10;;
17650;SDS011;26663;59.302;18.082;2022-08-25T09:21:15;5.53;;;0.90;;
17650;SDS011;26663;59.302;18.082;2022-08-25T09:24:46;0.70;;;0.70;;
17650;SDS011;26663;59.302;18.082;2022-08-25T09:28:18;0.80;;;0.80;;
17650;SDS011;26663;59.302;18.082;2022-08-25T09:31:31;0.85;;;0.85;;
17650;SDS011;26663;59.302;18.082;2022-08-25T09:34:41;1.65;;;1.65;;
17650;SDS011;26663;59.302;18.082;2022-08-25T09:37:54;0.90;;;0.90;;
17650;SDS011;26663;59.302;18.082;2022-08-25T09:41:02;0.60;;;0.60;;
17650;SDS011;26663;59.302;18.082;2022-08-25T09:44:18;1.67;;;1.00;;
17650;SDS011;26663;59.302;18.082;2022-08-25T09:47:44;1.98;;;0.93;;
17650;SDS011;26663;59.302;18.082;2022-08-25T09:51:14;1.65;;;1.10;;
17650;SDS011;26663;59.302;18.082;2022-08-25T09:54:25;1.50;;;1.40;;
17650;SDS011;26663;59.302;18.082;2022-08-25T09:57:47;0.90;;;0.90;;
17650;SDS011;26663;59.302;18.082;2022-08-25T10:01:03;2.05;;;1.00;;
17650;SDS011;26663;59.302;18.082;2022-08-25T10:04:25;1.17;;;1.10;;
17650;SDS011;26663;59.302;18.082;2022-08-25T10:07:35;1.25;;;1.25;;
17650;SDS011;26663;59.302;18.082;2022-08-25T10:10:44;1.30;;;1.30;;
17650;SDS011;26663;59.302;18.082;2022-08-25T10:13:50;1.20;;;1.20;;
17650;SDS011;26663;59.302;18.082;2022-08-25T10:17:25;2.53;;;1.23;;
17650;SDS011;26663;59.302;18.082;2022-08-25T10:21:02;1.42;;;0.88;;
17650;SDS011;26663;59.302;18.082;2022-08-25T10:24:21;1.40;;;1.40;;
17650;SDS011;26663;59.302;18.082;2022-08-25T10:28:04;0.90;;;0.90;;
17650;SDS011;26663;59.302;18.082;2022-08-25T10:31:17;2.08;;;1.00;;
17650;SDS011;26663;59.302;18.082;2022-08-25T10:34:43;1.27;;;1.17;;
17650;SDS011;26663;59.302;18.082;2022-08-25T10:38:15;1.40;;;1.30;;
17650;SDS011;26663;59.302;18.082;2022-08-25T10:41:41;1.15;;;1.15;;
17650;SDS011;26663;59.302;18.082;2022-08-25T10:45:00;1.17;;;1.00;;
17650;SDS011;26663;59.302;18.082;2022-08-25T10:48:43;1.00;;;1.00;;
17650;SDS011;26663;59.302;18.082;2022-08-25T10:52:02;3.13;;;1.00;;
17650;SDS011;26663;59.302;18.082;2022-08-25T10:55:15;0.90;;;0.90;;
17650;SDS011;26663;59.302;18.082;2022-08-25T10:58:26;1.35;;;1.35;;
17650;SDS011;26663;59.302;18.082;2022-08-25T11:01:48;1.50;;;1.50;;
17650;SDS011;26663;59.302;18.082;2022-08-25T11:05:15;1.10;;;1.10;;
17650;SDS011;26663;59.302;18.082;2022-08-25T11:08:31;1.95;;;1.20;;
17650;SDS011;26663;59.302;18.082;2022-08-25T11:11:56;6.82;;;6.32;;
17650;SDS011;26663;59.302;18.082;2022-08-25T11:15:12;0.93;;;0.93;;
17650;SDS011;26663;59.302;18.082;2022-08-25T11:18:47;0.93;;;0.93;;
17650;SDS011;26663;59.302;18.082;2022-08-25T11:22:21;0.98;;;0.98;;
17650;SDS011;26663;59.302;18.082;2022-08-25T11:25:31;2.67;;;0.90;;
17650;SDS011;26663;59.302;18.082;2022-08-25T11:28:58;0.90;;;0.90;;
17650;SDS011;26663;59.302;18.082;2022-08-25T11:32:13;3.97;;;3.35;;
17650;SDS011;26663;59.302;18.082;2022-08-25T11:35:25;1.65;;;1.55;;
17650;SDS011;26663;59.302;18.082;2022-08-25T11:38:55;1.00;;;1.00;;
17650;SDS011;26663;59.302;18.082;2022-08-25T11:42:19;1.27;;;1.00;;
17650;SDS011;26663;59.302;18.082;2022-08-25T11:45:53;1.20;;;1.10;;
17650;SDS011;26663;59.302;18.082;2022-08-25T11:49:12;1.95;;;1.08;;
17650;SDS011;26663;59.302;18.082;2022-08-25T11:52:44;1.20;;;1.10;;
17650;SDS011;26663;59.302;18.082;2022-08-25T11:55:58;1.27;;;1.10;;
17650;SDS011;26663;59.302;18.082;2022-08-25T12:03:52;1.30;;;1.30;;
17650;SDS011;26663;59.302;18.082;2022-08-25T12:07:22;1.30;;;1.30;;
17650;SDS011;26663;59.302;18.082;2022-08-25T12:14:16;1.08;;;1.08;;
17650;SDS011;26663;59.302;18.082;2022-08-25T12:21:28;3.15;;;1.08;;
17650;SDS011;26663;59.302;18.082;2022-08-25T12:24:44;1.20;;;1.20;;
17650;SDS011;26663;59.302;18.082;2022-08-25T12:27:58;3.40;;;1.10;;
17650;SDS011;26663;59.302;18.082;2022-08-25T12:31:18;0.93;;;0.93;;
17650;SDS011;26663;59.302;18.082;2022-08-25T12:38:34;1.15;;;1.15;;
17650;SDS011;26663;59.302;18.082;2022-08-25T12:41:54;1.00;;;1.00;;
17650;SDS011;26663;59.302;18.082;2022-08-25T12:45:09;5.50;;;1.40;;
17650;SDS011;26663;59.302;18.082;2022-08-25T12:52:04;1.40;;;1.00;;
17650;SDS011;26663;59.302;18.082;2022-08-25T12:55:14;13.30;;;1.85;;
17650;SDS011;26663;59.302;18.082;2022-08-25T12:58:20;11.90;;;3.78;;
17650;SDS011;26663;59.302;18.082;2022-08-25T13:06:00;1.20;;;1.20;;
17650;SDS011;26663;59.302;18.082;2022-08-25T13:09:51;1.33;;;1.33;;
17650;SDS011;26663;59.302;18.082;2022-08-25T13:13:18;2.38;;;1.02;;
17650;SDS011;26663;59.302;18.082;2022-08-25T13:16:35;2.33;;;2.20;;
17650;SDS011;26663;59.302;18.082;2022-08-25T13:19:40;1.88;;;1.73;;
17650;SDS011;26663;59.302;18.082;2022-08-25T13:22:46;1.95;;;1.55;;
17650;SDS011;26663;59.302;18.082;2022-08-25T13:25:59;1.50;;;1.50;;
17650;SDS011;26663;59.302;18.082;2022-08-25T13:29:12;1.00;;;1.00;;
17650;SDS011;26663;59.302;18.082;2022-08-25T13:32:25;2.28;;;1.50;;
17650;SDS011;26663;59.302;18.082;2022-08-25T13:35:37;0.90;;;0.90;;
17650;SDS011;26663;59.302;18.082;2022-08-25T13:38:43;2.92;;;1.10;;
17650;SDS011;26663;59.302;18.082;2022-08-25T13:41:52;2.28;;;1.15;;
17650;SDS011;26663;59.302;18.082;2022-08-25T13:45:09;1.23;;;1.10;;
17650;SDS011;26663;59.302;18.082;2022-08-25T13:48:30;1.08;;;0.98;;
17650;SDS011;26663;59.302;18.082;2022-08-25T13:51:49;1.10;;;1.00;;
17650;SDS011;26663;59.302;18.082;2022-08-25T13:54:57;1.10;;;1.10;;
17650;SDS011;26663;59.302;18.082;2022-08-25T13:58:11;4.60;;;1.00;;
17650;SDS011;26663;59.302;18.082;2022-08-25T14:01:29;1.08;;;0.98;;
17650;SDS011;26663;59.302;18.082;2022-08-25T14:04:51;0.90;;;0.90;;
17650;SDS011;26663;59.302;18.082;2022-08-25T14:07:58;2.88;;;1.20;;
17650;SDS011;26663;59.302;18.082;2022-08-25T14:11:26;0.93;;;0.93;;
17650;SDS011;26663;59.302;18.082;2022-08-25T14:14:34;1.10;;;1.10;;
17650;SDS011;26663;59.302;18.082;2022-08-25T14:17:41;1.00;;;1.00;;
17650;SDS011;26663;59.302;18.082;2022-08-25T14:20:51;5.57;;;1.08;;
17650;SDS011;26663;59.302;18.082;2022-08-25T14:23:58;2.67;;;1.42;;
17650;SDS011;26663;59.302;18.082;2022-08-25T14:27:04;1.20;;;1.10;;
17650;SDS011;26663;59.302;18.082;2022-08-25T14:30:14;1.40;;;1.20;;
17650;SDS011;26663;59.302;18.082;2022-08-25T14:33:33;2.15;;;1.30;;
17650;SDS011;26663;59.302;18.082;2022-08-25T14:36:42;1.80;;;1.80;;
17650;SDS011;26663;59.302;18.082;2022-08-25T14:39:48;1.00;;;1.00;;
17650;SDS011;26663;59.302;18.082;2022-08-25T14:42:55;2.30;;;2.20;;
17650;SDS011;26663;59.302;18.082;2022-08-25T14:46:06;1.00;;;1.00;;
17650;SDS011;26663;59.302;18.082;2022-08-25T14:49:20;1.30;;;1.08;;
17650;SDS011;26663;59.302;18.082;2022-08-25T14:52:29;0.98;;;0.98;;
17650;SDS011;26663;59.302;18.082;2022-08-25T14:55:36;1.23;;;1.20;;
17650;SDS011;26663;59.302;18.082;2022-08-25T14:58:42;1.45;;;1.15;;
17650;SDS011;26663;59.302;18.082;2022-08-25T15:01:55;1.15;;;1.08;;
17650;SDS011;26663;59.302;18.082;2022-08-25T15:05:02;2.38;;;1.10;;
17650;SDS011;26663;59.302;18.082;2022-08-25T15:08:12;1.17;;;1.13;;
17650;SDS011;26663;59.302;18.082;2022-08-25T15:11:36;1.95;;;0.98;;
17650;SDS011;26663;59.302;18.082;2022-08-25T15:14:44;1.95;;;1.27;;
17650;SDS011;26663;59.302;18.082;2022-08-25T15:17:49;1.90;;;1.80;;
17650;SDS011;26663;59.302;18.082;2022-08-25T15:21:00;1.38;;;1.38;;
17650;SDS011;26663;59.302;18.082;2022-08-25T15:24:07;1.52;;;1.30;;
17650;SDS011;26663;59.302;18.082;2022-08-25T15:27:13;3.15;;;1.17;;
17650;SDS011;26663;59.302;18.082;2022-08-25T15:30:21;1.38;;;0.98;;
17650;SDS011;26663;59.302;18.082;2022-08-25T15:33:33;0.95;;;0.95;;
17650;SDS011;26663;59.302;18.082;2022-08-25T15:36:40;1.25;;;1.25;;
17650;SDS011;26663;59.302;18.082;2022-08-25T15:39:46;6.78;;;1.55;;
17650;SDS011;26663;59.302;18.082;2022-08-25T15:42:51;0.90;;;0.90;;
17650;SDS011;26663;59.302;18.082;2022-08-25T15:45:58;1.48;;;1.15;;
17650;SDS011;26663;59.302;18.082;2022-08-25T15:49:04;2.42;;;1.20;;
17650;SDS011;26663;59.302;18.082;2022-08-25T15:52:12;1.70;;;1.60;;
17650;SDS011;26663;59.302;18.082;2022-08-25T15:55:17;2.00;;;1.20;;
17650;SDS011;26663;59.302;18.082;2022-08-25T15:58:23;0.80;;;0.80;;
17650;SDS011;26663;59.302;18.082;2022-08-25T16:01:29;1.40;;;1.27;;
17650;SDS011;26663;59.302;18.082;2022-08-25T16:04:34;1.33;;;1.23;;
17650;SDS011;26663;59.302;18.082;2022-08-25T16:07:42;2.90;;;1.48;;
17650;SDS011;26663;59.302;18.082;2022-08-25T16:10:55;2.53;;;1.50;;
17650;SDS011;26663;59.302;18.082;2022-08-25T16:14:00;2.72;;;1.40;;
17650;SDS011;26663;59.302;18.082;2022-08-25T16:17:07;1.83;;;1.40;;
17650;SDS011;26663;59.302;18.082;2022-08-25T16:20:14;1.48;;;1.38;;
17650;SDS011;26663;59.302;18.082;2022-08-25T16:23:21;2.72;;;1.15;;
17650;SDS011;26663;59.302;18.082;2022-08-25T16:26:27;2.40;;;1.20;;
17650;SDS011;26663;59.302;18.082;2022-08-25T16:29:33;1.20;;;1.20;;
17650;SDS011;26663;59.302;18.082;2022-08-25T16:32:39;9.43;;;1.65;;
17650;SDS011;26663;59.302;18.082;2022-08-25T16:35:45;1.15;;;1.15;;
17650;SDS011;26663;59.302;18.082;2022-08-25T16:38:53;1.90;;;1.25;;
17650;SDS011;26663;59.302;18.082;2022-08-25T16:41:59;1.00;;;1.00;;
17650;SDS011;26663;59.302;18.082;2022-08-25T16:45:08;1.85;;;1.15;;
17650;SDS011;26663;59.302;18.082;2022-08-25T16:48:14;1.02;;;1.02;;
17650;SDS011;26663;59.302;18.082;2022-08-25T16:51:20;1.20;;;1.10;;
17650;SDS011;26663;59.302;18.082;2022-08-25T16:54:33;1.60;;;1.52;;
17650;SDS011;26663;59.302;18.082;2022-08-25T16:57:56;1.00;;;1.00;;
17650;SDS011;26663;59.302;18.082;2022-08-25T17:01:08;2.00;;;1.63;;
17650;SDS011;26663;59.302;18.082;2022-08-25T17:04:15;1.05;;;1.05;;
17650;SDS011;26663;59.302;18.082;2022-08-25T17:07:21;1.98;;;1.88;;
17650;SDS011;26663;59.302;18.082;2022-08-25T17:10:28;5.43;;;1.90;;
17650;SDS011;26663;59.302;18.082;2022-08-25T17:13:34;1.30;;;1.30;;
17650;SDS011;26663;59.302;18.082;2022-08-25T17:16:40;1.10;;;1.10;;
17650;SDS011;26663;59.302;18.082;2022-08-25T17:19:46;6.13;;;1.00;;
17650;SDS011;26663;59.302;18.082;2022-08-25T17:22:56;5.00;;;1.55;;
17650;SDS011;26663;59.302;18.082;2022-08-25T17:26:04;1.30;;;1.20;;
17650;SDS011;26663;59.302;18.082;2022-08-25T17:29:17;1.95;;;1.00;;
17650;SDS011;26663;59.302;18.082;2022-08-25T17:32:22;1.13;;;1.10;;
17650;SDS011;26663;59.302;18.082;2022-08-25T17:35:36;2.85;;;0.90;;
17650;SDS011;26663;59.302;18.082;2022-08-25T17:38:42;1.55;;;0.80;;
17650;SDS011;26663;59.302;18.082;2022-08-25T17:41:50;0.98;;;0.90;;
17650;SDS011;26663;59.302;18.082;2022-08-25T17:44:55;0.95;;;0.95;;
17650;SDS011;26663;59.302;18.082;2022-08-25T17:48:02;0.98;;;0.98;;
17650;SDS011;26663;59.302;18.082;2022-08-25T17:51:10;1.00;;;1.00;;
17650;SDS011;26663;59.302;18.082;2022-08-25T17:54:18;2.25;;;1.10;;
17650;SDS011;26663;59.302;18.082;2022-08-25T17:57:25;4.28;;;1.25;;
17650;SDS011;26663;59.302;18.082;2022-08-25T18:00:30;1.40;;;1.00;;
17650;SDS011;26663;59.302;18.082;2022-08-25T18:03:37;1.00;;;1.00;;
17650;SDS011;26663;59.302;18.082;2022-08-25T18:06:43;1.00;;;1.00;;
17650;SDS011;26663;59.302;18.082;2022-08-25T18:09:50;0.95;;;0.95;;
17650;SDS011;26663;59.302;18.082;2022-08-25T18:12:58;0.80;;;0.80;;
17650;SDS011;26663;59.302;18.082;2022-08-25T18:16:05;0.82;;;0.82;;
17650;SDS011;26663;59.302;18.082;2022-08-25T18:19:11;0.90;;;0.90;;
17650;SDS011;26663;59.302;18.082;2022-08-25T18:22:18;0.95;;;0.95;;
17650;SDS011;26663;59.302;18.082;2022-08-25T18:25:24;1.08;;;1.08;;
17650;SDS011;26663;59.302;18.082;2022-08-25T18:28:32;2.38;;;0.90;;
17650;SDS011;26663;59.302;18.082;2022-08-25T18:31:38;1.63;;;1.00;;
17650;SDS011;26663;59.302;18.082;2022-08-25T18:34:45;0.93;;;0.93;;
17650;SDS011;26663;59.302;18.082;2022-08-25T18:37:50;1.02;;;1.00;;
17650;SDS011;26663;59.302;18.082;2022-08-25T18:41:15;1.38;;;1.00;;
17650;SDS011;26663;59.302;18.082;2022-08-25T18:44:23;1.42;;;1.42;;
17650;SDS011;26663;59.302;18.082;2022-08-25T18:47:28;3.97;;;3.55;;
17650;SDS011;26663;59.302;18.082;2022-08-25T18:50:34;2.85;;;2.70;;
17650;SDS011;26663;59.302;18.082;2022-08-25T18:53:45;2.85;;;2.13;;
17650;SDS011;26663;59.302;18.082;2022-08-25T18:56:53;3.28;;;1.60;;
17650;SDS011;26663;59.302;18.082;2022-08-25T19:00:00;1.50;;;1.40;;
17650;SDS011;26663;59.302;18.082;2022-08-25T19:03:13;1.90;;;1.35;;
17650;SDS011;26663;59.302;18.082;2022-08-25T19:06:20;2.15;;;1.10;;
17650;SDS011;26663;59.302;18.082;2022-08-25T19:09:26;1.80;;;1.40;;
17650;SDS011;26663;59.302;18.082;2022-08-25T19:12:32;2.80;;;1.67;;
17650;SDS011;26663;59.302;18.082;2022-08-25T19:15:41;2.63;;;1.30;;
17650;SDS011;26663;59.302;18.082;2022-08-25T19:18:48;1.70;;;1.20;;